sensor_id;sensor_type;location;lat;lon;timestamp;P1;durP1;ratioP1;P2;durP2;ratioP2
10009;SDS011;5044;48.652;9.250;2023-06-26T00:00:33;10.07;;;4.65;;
10009;SDS011;5044;48.652;9.250;2023-06-26T00:03:02;9.55;;;5.57;;
10009;SDS011;5044;48.652;9.250;2023-06-26T00:05:28;8.70;;;4.68;;
10009;SDS011;5044;48.652;9.250;2023-06-26T00:07:56;6.32;;;4.60;;
10009;SDS011;5044;48.652;9.250;2023-06-26T00:10:26;9.30;;;5.35;;
10009;SDS011;5044;48.652;9.250;2023-06-26T00:12:53;7.38;;;5.20;;
10009;SDS011;5044;48.652;9.250;2023-06-26T00:15:20;5.53;;;4.45;;
10009;SDS011;5044;48.652;9.250;2023-06-26T00:17:47;6.00;;;4.50;;
10009;SDS011;5044;48.652;9.250;2023-06-26T00:20:15;7.57;;;4.70;;
10009;SDS011;5044;48.652;9.250;2023-06-26T00:22:43;6.25;;;4.75;;
10009;SDS011;5044;48.652;9.250;2023-06-26T00:25:11;6.03;;;4.53;;
10009;SDS011;5044;48.652;9.250;2023-06-26T00:27:39;6.85;;;4.65;;
10009;SDS011;5044;48.652;9.250;2023-06-26T00:30:06;5.78;;;4.47;;
10009;SDS011;5044;48.652;9.250;2023-06-26T00:32:34;6.05;;;4.60;;
10009;SDS011;5044;48.652;9.250;2023-06-26T00:35:01;5.75;;;4.30;;
10009;SDS011;5044;48.652;9.250;2023-06-26T00:37:27;10.52;;;5.30;;
10009;SDS011;5044;48.652;9.250;2023-06-26T00:39:54;5.68;;;4.57;;
10009;SDS011;5044;48.652;9.250;2023-06-26T00:42:21;5.60;;;4.47;;
10009;SDS011;5044;48.652;9.250;2023-06-26T00:44:49;9.50;;;4.82;;
10009;SDS011;5044;48.652;9.250;2023-06-26T00:47:16;6.00;;;5.32;;
10009;SDS011;5044;48.652;9.250;2023-06-26T00:49:44;7.55;;;4.80;;
10009;SDS011;5044;48.652;9.250;2023-06-26T00:52:11;6.82;;;4.97;;
10009;SDS011;5044;48.652;9.250;2023-06-26T00:54:38;7.35;;;4.95;;
10009;SDS011;5044;48.652;9.250;2023-06-26T00:57:05;7.28;;;4.65;;
10009;SDS011;5044;48.652;9.250;2023-06-26T00:59:32;6.10;;;4.88;;
10009;SDS011;5044;48.652;9.250;2023-06-26T01:02:01;6.18;;;4.78;;
10009;SDS011;5044;48.652;9.250;2023-06-26T01:04:32;6.70;;;5.28;;
10009;SDS011;5044;48.652;9.250;2023-06-26T01:07:00;5.00;;;4.45;;
10009;SDS011;5044;48.652;9.250;2023-06-26T01:09:29;10.88;;;4.70;;
10009;SDS011;5044;48.652;9.250;2023-06-26T01:11:57;6.63;;;4.63;;
10009;SDS011;5044;48.652;9.250;2023-06-26T01:14:25;7.03;;;4.63;;
10009;SDS011;5044;48.652;9.250;2023-06-26T01:16:52;5.60;;;4.45;;
10009;SDS011;5044;48.652;9.250;2023-06-26T01:19:25;8.43;;;5.25;;
10009;SDS011;5044;48.652;9.250;2023-06-26T01:21:56;6.65;;;4.50;;
10009;SDS011;5044;48.652;9.250;2023-06-26T01:24:32;7.32;;;4.82;;
10009;SDS011;5044;48.652;9.250;2023-06-26T01:27:04;8.88;;;4.90;;
10009;SDS011;5044;48.652;9.250;2023-06-26T01:29:32;6.07;;;4.73;;
10009;SDS011;5044;48.652;9.250;2023-06-26T01:32:01;7.15;;;4.65;;
10009;SDS011;5044;48.652;9.250;2023-06-26T07:13:12;5.45;;;3.53;;
10009;SDS011;5044;48.652;9.250;2023-06-26T07:15:39;4.18;;;3.38;;
10009;SDS011;5044;48.652;9.250;2023-06-26T07:18:06;3.67;;;3.08;;
10009;SDS011;5044;48.652;9.250;2023-06-26T07:20:33;6.85;;;4.10;;
10009;SDS011;5044;48.652;9.250;2023-06-26T07:22:59;5.47;;;3.80;;
10009;SDS011;5044;48.652;9.250;2023-06-26T07:25:26;9.68;;;3.85;;
10009;SDS011;5044;48.652;9.250;2023-06-26T07:27:54;7.32;;;3.80;;
10009;SDS011;5044;48.652;9.250;2023-06-26T07:30:21;5.00;;;4.25;;
10009;SDS011;5044;48.652;9.250;2023-06-26T07:32:49;5.15;;;3.92;;
10009;SDS011;5044;48.652;9.250;2023-06-26T07:35:15;4.95;;;3.85;;
10009;SDS011;5044;48.652;9.250;2023-06-26T07:37:42;8.07;;;4.05;;
10009;SDS011;5044;48.652;9.250;2023-06-26T07:40:10;4.80;;;3.67;;
10009;SDS011;5044;48.652;9.250;2023-06-26T07:42:37;6.45;;;3.90;;
10009;SDS011;5044;48.652;9.250;2023-06-26T07:45:07;4.47;;;3.88;;
10009;SDS011;5044;48.652;9.250;2023-06-26T07:47:37;5.72;;;3.78;;
10009;SDS011;5044;48.652;9.250;2023-06-26T07:50:04;5.65;;;4.20;;
10009;SDS011;5044;48.652;9.250;2023-06-26T07:52:31;8.80;;;3.97;;
10009;SDS011;5044;48.652;9.250;2023-06-26T07:54:58;5.07;;;3.67;;
10009;SDS011;5044;48.652;9.250;2023-06-26T07:57:25;5.35;;;3.90;;
10009;SDS011;5044;48.652;9.250;2023-06-26T07:59:51;4.15;;;3.28;;
10009;SDS011;5044;48.652;9.250;2023-06-26T08:02:20;4.57;;;3.42;;
10009;SDS011;5044;48.652;9.250;2023-06-26T08:04:47;5.07;;;3.78;;
10009;SDS011;5044;48.652;9.250;2023-06-26T08:07:13;6.60;;;3.35;;
10009;SDS011;5044;48.652;9.250;2023-06-26T08:09:40;6.82;;;3.67;;
10009;SDS011;5044;48.652;9.250;2023-06-26T08:12:07;4.47;;;3.25;;
10009;SDS011;5044;48.652;9.250;2023-06-26T08:14:34;6.22;;;3.53;;
10009;SDS011;5044;48.652;9.250;2023-06-26T08:17:01;5.35;;;3.75;;
10009;SDS011;5044;48.652;9.250;2023-06-26T08:19:30;3.90;;;3.33;;
10009;SDS011;5044;48.652;9.250;2023-06-26T08:22:00;8.13;;;3.60;;
10009;SDS011;5044;48.652;9.250;2023-06-26T08:24:27;6.07;;;3.78;;
10009;SDS011;5044;48.652;9.250;2023-06-26T08:26:54;3.20;;;2.85;;
10009;SDS011;5044;48.652;9.250;2023-06-26T08:29:21;6.13;;;3.60;;
10009;SDS011;5044;48.652;9.250;2023-06-26T08:31:47;4.35;;;3.45;;
10009;SDS011;5044;48.652;9.250;2023-06-26T08:34:15;4.07;;;3.15;;
10009;SDS011;5044;48.652;9.250;2023-06-26T08:36:43;6.57;;;3.97;;
10009;SDS011;5044;48.652;9.250;2023-06-26T08:39:10;3.58;;;3.13;;
10009;SDS011;5044;48.652;9.250;2023-06-26T08:41:37;3.90;;;3.50;;
10009;SDS011;5044;48.652;9.250;2023-06-26T08:44:04;7.68;;;3.38;;
10009;SDS011;5044;48.652;9.250;2023-06-26T08:46:31;7.00;;;3.85;;
10009;SDS011;5044;48.652;9.250;2023-06-26T08:49:00;4.70;;;3.95;;
10009;SDS011;5044;48.652;9.250;2023-06-26T08:51:31;4.53;;;3.92;;
10009;SDS011;5044;48.652;9.250;2023-06-26T08:54:06;5.97;;;3.60;;
10009;SDS011;5044;48.652;9.250;2023-06-26T08:56:36;4.95;;;4.13;;
10009;SDS011;5044;48.652;9.250;2023-06-26T08:59:06;4.85;;;4.32;;
10009;SDS011;5044;48.652;9.250;2023-06-26T09:01:35;4.90;;;3.65;;
10009;SDS011;5044;48.652;9.250;2023-06-26T09:04:02;4.85;;;3.83;;
10009;SDS011;5044;48.652;9.250;2023-06-26T09:06:29;5.65;;;4.30;;
10009;SDS011;5044;48.652;9.250;2023-06-26T09:08:56;3.80;;;3.38;;
10009;SDS011;5044;48.652;9.250;2023-06-26T09:11:24;3.88;;;3.47;;
10009;SDS011;5044;48.652;9.250;2023-06-26T09:13:51;4.88;;;3.35;;
10009;SDS011;5044;48.652;9.250;2023-06-26T09:16:18;3.90;;;3.05;;
10009;SDS011;5044;48.652;9.250;2023-06-26T09:18:51;5.32;;;3.30;;
10009;SDS011;5044;48.652;9.250;2023-06-26T09:21:19;4.97;;;4.10;;
10009;SDS011;5044;48.652;9.250;2023-06-26T09:23:48;5.05;;;3.63;;
10009;SDS011;5044;48.652;9.250;2023-06-26T09:26:16;9.00;;;4.57;;
10009;SDS011;5044;48.652;9.250;2023-06-26T09:28:44;6.82;;;3.53;;
10009;SDS011;5044;48.652;9.250;2023-06-26T09:31:12;4.60;;;3.78;;
10009;SDS011;5044;48.652;9.250;2023-06-26T09:33:39;6.50;;;3.17;;
10009;SDS011;5044;48.652;9.250;2023-06-26T09:36:07;4.25;;;3.15;;
10009;SDS011;5044;48.652;9.250;2023-06-26T09:38:44;4.32;;;3.92;;
10009;SDS011;5044;48.652;9.250;2023-06-26T09:41:11;6.82;;;3.33;;
10009;SDS011;5044;48.652;9.250;2023-06-26T09:43:46;4.80;;;4.00;;
10009;SDS011;5044;48.652;9.250;2023-06-26T09:46:15;4.43;;;3.53;;
10009;SDS011;5044;48.652;9.250;2023-06-26T09:48:42;3.70;;;3.35;;
10009;SDS011;5044;48.652;9.250;2023-06-26T09:51:09;4.15;;;3.45;;
10009;SDS011;5044;48.652;9.250;2023-06-26T09:53:36;4.30;;;3.88;;
10009;SDS011;5044;48.652;9.250;2023-06-26T09:56:06;4.75;;;3.90;;
10009;SDS011;5044;48.652;9.250;2023-06-26T09:58:33;7.45;;;4.05;;
10009;SDS011;5044;48.652;9.250;2023-06-26T10:01:02;4.70;;;4.22;;
10009;SDS011;5044;48.652;9.250;2023-06-26T10:03:29;6.15;;;4.18;;
10009;SDS011;5044;48.652;9.250;2023-06-26T10:05:56;7.20;;;3.35;;
10009;SDS011;5044;48.652;9.250;2023-06-26T10:08:24;4.43;;;3.67;;
10009;SDS011;5044;48.652;9.250;2023-06-26T10:10:51;4.10;;;3.45;;
10009;SDS011;5044;48.652;9.250;2023-06-26T10:13:21;4.43;;;3.63;;
10009;SDS011;5044;48.652;9.250;2023-06-26T10:15:53;6.13;;;3.70;;
10009;SDS011;5044;48.652;9.250;2023-06-26T10:18:22;11.27;;;3.63;;
10009;SDS011;5044;48.652;9.250;2023-06-26T10:20:53;6.05;;;3.88;;
10009;SDS011;5044;48.652;9.250;2023-06-26T10:23:21;4.23;;;3.43;;
10009;SDS011;5044;48.652;9.250;2023-06-26T10:25:51;4.85;;;3.65;;
10009;SDS011;5044;48.652;9.250;2023-06-26T10:28:18;8.10;;;3.63;;
10009;SDS011;5044;48.652;9.250;2023-06-26T10:30:49;5.72;;;3.50;;
10009;SDS011;5044;48.652;9.250;2023-06-26T10:33:18;5.80;;;3.67;;
10009;SDS011;5044;48.652;9.250;2023-06-26T10:35:47;8.20;;;3.50;;
10009;SDS011;5044;48.652;9.250;2023-06-26T10:38:14;3.75;;;3.42;;
10009;SDS011;5044;48.652;9.250;2023-06-26T10:40:50;3.90;;;3.55;;
10009;SDS011;5044;48.652;9.250;2023-06-26T10:43:17;7.35;;;3.72;;
10009;SDS011;5044;48.652;9.250;2023-06-26T10:45:44;4.85;;;4.13;;
10009;SDS011;5044;48.652;9.250;2023-06-26T10:48:17;4.88;;;3.75;;
10009;SDS011;5044;48.652;9.250;2023-06-26T10:50:45;5.68;;;3.55;;
10009;SDS011;5044;48.652;9.250;2023-06-26T10:53:15;4.30;;;3.67;;
10009;SDS011;5044;48.652;9.250;2023-06-26T10:55:50;7.13;;;4.18;;
10009;SDS011;5044;48.652;9.250;2023-06-26T10:58:30;6.68;;;3.80;;
10009;SDS011;5044;48.652;9.250;2023-06-26T11:03:41;5.22;;;4.50;;
10009;SDS011;5044;48.652;9.250;2023-06-26T11:06:10;6.30;;;4.55;;
10009;SDS011;5044;48.652;9.250;2023-06-26T11:08:46;6.47;;;4.45;;
10009;SDS011;5044;48.652;9.250;2023-06-26T11:11:13;5.88;;;4.32;;
10009;SDS011;5044;48.652;9.250;2023-06-26T11:13:40;8.25;;;4.40;;
10009;SDS011;5044;48.652;9.250;2023-06-26T11:16:08;10.52;;;4.43;;
10009;SDS011;5044;48.652;9.250;2023-06-26T11:18:35;6.78;;;4.45;;
10009;SDS011;5044;48.652;9.250;2023-06-26T11:21:05;5.45;;;4.63;;
10009;SDS011;5044;48.652;9.250;2023-06-26T11:23:35;5.53;;;4.28;;
10009;SDS011;5044;48.652;9.250;2023-06-26T11:26:15;6.70;;;4.32;;
10009;SDS011;5044;48.652;9.250;2023-06-26T11:28:45;4.57;;;4.05;;
10009;SDS011;5044;48.652;9.250;2023-06-26T11:31:25;5.80;;;4.70;;
10009;SDS011;5044;48.652;9.250;2023-06-26T11:33:55;5.10;;;4.10;;
10009;SDS011;5044;48.652;9.250;2023-06-26T11:36:23;10.25;;;4.78;;
10009;SDS011;5044;48.652;9.250;2023-06-26T11:38:56;6.03;;;4.32;;
10009;SDS011;5044;48.652;9.250;2023-06-26T11:41:23;5.10;;;4.10;;
10009;SDS011;5044;48.652;9.250;2023-06-26T11:43:52;5.75;;;4.30;;
10009;SDS011;5044;48.652;9.250;2023-06-26T11:46:19;9.02;;;4.10;;
10009;SDS011;5044;48.652;9.250;2023-06-26T11:48:48;8.90;;;4.47;;
10009;SDS011;5044;48.652;9.250;2023-06-26T11:51:15;5.13;;;4.38;;
10009;SDS011;5044;48.652;9.250;2023-06-26T11:53:42;4.78;;;4.03;;
10009;SDS011;5044;48.652;9.250;2023-06-26T11:56:12;7.15;;;4.75;;
10009;SDS011;5044;48.652;9.250;2023-06-26T12:01:25;7.82;;;4.30;;
10009;SDS011;5044;48.652;9.250;2023-06-26T12:03:58;9.00;;;4.47;;
10009;SDS011;5044;48.652;9.250;2023-06-26T12:06:26;10.40;;;4.25;;
10009;SDS011;5044;48.652;9.250;2023-06-26T12:08:55;5.45;;;4.53;;
10009;SDS011;5044;48.652;9.250;2023-06-26T12:11:25;7.63;;;5.28;;
10009;SDS011;5044;48.652;9.250;2023-06-26T12:13:53;9.33;;;4.77;;
10009;SDS011;5044;48.652;9.250;2023-06-26T12:16:20;7.10;;;4.22;;
10009;SDS011;5044;48.652;9.250;2023-06-26T12:18:47;5.35;;;4.20;;
10009;SDS011;5044;48.652;9.250;2023-06-26T12:24:12;4.47;;;4.05;;
10009;SDS011;5044;48.652;9.250;2023-06-26T12:26:42;5.28;;;4.78;;
10009;SDS011;5044;48.652;9.250;2023-06-26T12:29:10;6.30;;;3.85;;
10009;SDS011;5044;48.652;9.250;2023-06-26T12:31:41;9.77;;;4.90;;
10009;SDS011;5044;48.652;9.250;2023-06-26T12:34:09;5.40;;;4.53;;
10009;SDS011;5044;48.652;9.250;2023-06-26T12:36:40;5.28;;;4.32;;
10009;SDS011;5044;48.652;9.250;2023-06-26T12:39:09;5.07;;;4.53;;
10009;SDS011;5044;48.652;9.250;2023-06-26T12:41:45;6.45;;;4.63;;
10009;SDS011;5044;48.652;9.250;2023-06-26T12:44:22;4.93;;;4.20;;
10009;SDS011;5044;48.652;9.250;2023-06-26T12:46:53;7.53;;;4.57;;
10009;SDS011;5044;48.652;9.250;2023-06-26T12:49:33;7.80;;;3.95;;
10009;SDS011;5044;48.652;9.250;2023-06-26T12:52:02;7.65;;;4.43;;
10009;SDS011;5044;48.652;9.250;2023-06-26T12:54:30;6.50;;;4.53;;
10009;SDS011;5044;48.652;9.250;2023-06-26T12:56:58;7.00;;;4.57;;
10009;SDS011;5044;48.652;9.250;2023-06-26T12:59:25;7.80;;;4.20;;
10009;SDS011;5044;48.652;9.250;2023-06-26T13:01:52;5.15;;;4.15;;
10009;SDS011;5044;48.652;9.250;2023-06-26T13:04:19;8.10;;;3.92;;
10009;SDS011;5044;48.652;9.250;2023-06-26T13:06:46;7.38;;;4.20;;
10009;SDS011;5044;48.652;9.250;2023-06-26T13:09:12;4.22;;;3.75;;
10009;SDS011;5044;48.652;9.250;2023-06-26T13:11:40;5.53;;;4.60;;
10009;SDS011;5044;48.652;9.250;2023-06-26T13:14:08;4.90;;;3.95;;
10009;SDS011;5044;48.652;9.250;2023-06-26T13:16:35;7.25;;;4.35;;
10009;SDS011;5044;48.652;9.250;2023-06-26T13:19:02;5.18;;;4.53;;
10009;SDS011;5044;48.652;9.250;2023-06-26T13:21:29;6.45;;;4.50;;
10009;SDS011;5044;48.652;9.250;2023-06-26T13:23:56;5.47;;;4.30;;
10009;SDS011;5044;48.652;9.250;2023-06-26T13:26:24;5.45;;;4.35;;
10009;SDS011;5044;48.652;9.250;2023-06-26T13:28:53;13.80;;;6.70;;
10009;SDS011;5044;48.652;9.250;2023-06-26T13:31:23;4.82;;;4.32;;
10009;SDS011;5044;48.652;9.250;2023-06-26T13:33:51;9.07;;;4.20;;
10009;SDS011;5044;48.652;9.250;2023-06-26T13:36:18;10.63;;;5.60;;
10009;SDS011;5044;48.652;9.250;2023-06-26T13:38:46;6.05;;;4.80;;
10009;SDS011;5044;48.652;9.250;2023-06-26T13:41:14;5.90;;;4.82;;
10009;SDS011;5044;48.652;9.250;2023-06-26T13:43:41;10.95;;;4.45;;
10009;SDS011;5044;48.652;9.250;2023-06-26T13:46:08;7.05;;;4.63;;
10009;SDS011;5044;48.652;9.250;2023-06-26T13:48:36;10.05;;;4.88;;
10009;SDS011;5044;48.652;9.250;2023-06-26T13:51:03;10.07;;;4.30;;
10009;SDS011;5044;48.652;9.250;2023-06-26T13:53:30;4.60;;;4.15;;
10009;SDS011;5044;48.652;9.250;2023-06-26T13:55:56;6.72;;;4.10;;
10009;SDS011;5044;48.652;9.250;2023-06-26T13:58:23;5.20;;;4.68;;
10009;SDS011;5044;48.652;9.250;2023-06-26T14:00:52;4.93;;;4.32;;
10009;SDS011;5044;48.652;9.250;2023-06-26T14:03:19;7.38;;;4.13;;
10009;SDS011;5044;48.652;9.250;2023-06-26T14:05:47;7.18;;;4.45;;
10009;SDS011;5044;48.652;9.250;2023-06-26T14:08:14;8.70;;;4.32;;
10009;SDS011;5044;48.652;9.250;2023-06-26T14:10:41;6.03;;;4.78;;
10009;SDS011;5044;48.652;9.250;2023-06-26T14:13:08;6.93;;;3.97;;
10009;SDS011;5044;48.652;9.250;2023-06-26T14:15:36;7.43;;;4.18;;
10009;SDS011;5044;48.652;9.250;2023-06-26T14:18:05;5.55;;;3.63;;
10009;SDS011;5044;48.652;9.250;2023-06-26T14:20:32;4.55;;;3.80;;
10009;SDS011;5044;48.652;9.250;2023-06-26T14:23:02;4.75;;;4.25;;
10009;SDS011;5044;48.652;9.250;2023-06-26T14:25:29;6.43;;;3.85;;
10009;SDS011;5044;48.652;9.250;2023-06-26T14:27:56;8.07;;;3.90;;
10009;SDS011;5044;48.652;9.250;2023-06-26T14:30:24;4.00;;;3.58;;
10009;SDS011;5044;48.652;9.250;2023-06-26T14:32:52;5.13;;;3.92;;
10009;SDS011;5044;48.652;9.250;2023-06-26T14:35:19;6.30;;;3.92;;
10009;SDS011;5044;48.652;9.250;2023-06-26T14:37:47;5.20;;;3.90;;
10009;SDS011;5044;48.652;9.250;2023-06-26T14:40:15;6.15;;;3.88;;
10009;SDS011;5044;48.652;9.250;2023-06-26T14:42:42;4.82;;;3.58;;
10009;SDS011;5044;48.652;9.250;2023-06-26T14:45:10;5.43;;;4.30;;
10009;SDS011;5044;48.652;9.250;2023-06-26T14:47:37;5.85;;;3.13;;
10009;SDS011;5044;48.652;9.250;2023-06-26T14:50:05;4.10;;;3.33;;
10009;SDS011;5044;48.652;9.250;2023-06-26T14:52:33;6.10;;;3.90;;
10009;SDS011;5044;48.652;9.250;2023-06-26T14:54:59;6.50;;;3.42;;
10009;SDS011;5044;48.652;9.250;2023-06-26T14:57:28;3.65;;;3.15;;
10009;SDS011;5044;48.652;9.250;2023-06-26T14:59:55;5.53;;;3.20;;
10009;SDS011;5044;48.652;9.250;2023-06-26T15:02:22;5.07;;;3.38;;
10009;SDS011;5044;48.652;9.250;2023-06-26T15:04:49;3.92;;;3.13;;
10009;SDS011;5044;48.652;9.250;2023-06-26T15:07:16;6.00;;;3.28;;
10009;SDS011;5044;48.652;9.250;2023-06-26T15:09:43;3.55;;;3.00;;
10009;SDS011;5044;48.652;9.250;2023-06-26T15:12:10;5.40;;;3.10;;
10009;SDS011;5044;48.652;9.250;2023-06-26T15:14:38;3.75;;;2.90;;
10009;SDS011;5044;48.652;9.250;2023-06-26T15:17:05;4.28;;;3.08;;
10009;SDS011;5044;48.652;9.250;2023-06-26T15:19:32;5.40;;;2.58;;
10009;SDS011;5044;48.652;9.250;2023-06-26T15:21:59;3.42;;;2.30;;
10009;SDS011;5044;48.652;9.250;2023-06-26T15:24:26;3.47;;;2.58;;
10009;SDS011;5044;48.652;9.250;2023-06-26T15:26:53;6.57;;;2.70;;
10009;SDS011;5044;48.652;9.250;2023-06-26T15:29:20;6.57;;;2.92;;
10009;SDS011;5044;48.652;9.250;2023-06-26T15:31:48;4.70;;;2.47;;
10009;SDS011;5044;48.652;9.250;2023-06-26T15:34:15;4.32;;;2.60;;
10009;SDS011;5044;48.652;9.250;2023-06-26T15:36:42;3.72;;;2.70;;
10009;SDS011;5044;48.652;9.250;2023-06-26T15:39:09;3.17;;;2.50;;
10009;SDS011;5044;48.652;9.250;2023-06-26T15:41:36;4.82;;;2.65;;
10009;SDS011;5044;48.652;9.250;2023-06-26T15:44:03;6.22;;;2.60;;
10009;SDS011;5044;48.652;9.250;2023-06-26T15:46:35;6.55;;;2.65;;
10009;SDS011;5044;48.652;9.250;2023-06-26T15:49:03;8.20;;;2.70;;
10009;SDS011;5044;48.652;9.250;2023-06-26T15:51:33;4.88;;;2.78;;
10009;SDS011;5044;48.652;9.250;2023-06-26T15:54:02;3.43;;;2.33;;
10009;SDS011;5044;48.652;9.250;2023-06-26T15:56:29;5.30;;;2.70;;
10009;SDS011;5044;48.652;9.250;2023-06-26T15:58:59;6.80;;;3.08;;
10009;SDS011;5044;48.652;9.250;2023-06-26T16:01:28;7.47;;;3.22;;
10009;SDS011;5044;48.652;9.250;2023-06-26T16:03:55;6.45;;;2.88;;
10009;SDS011;5044;48.652;9.250;2023-06-26T16:06:23;4.82;;;3.10;;
10009;SDS011;5044;48.652;9.250;2023-06-26T16:08:50;4.93;;;2.88;;
10009;SDS011;5044;48.652;9.250;2023-06-26T16:11:17;4.32;;;2.67;;
10009;SDS011;5044;48.652;9.250;2023-06-26T16:13:44;6.45;;;3.30;;
10009;SDS011;5044;48.652;9.250;2023-06-26T16:16:12;3.83;;;3.28;;
10009;SDS011;5044;48.652;9.250;2023-06-26T16:18:39;6.28;;;3.35;;
10009;SDS011;5044;48.652;9.250;2023-06-26T16:21:06;4.60;;;3.13;;
10009;SDS011;5044;48.652;9.250;2023-06-26T16:23:35;7.53;;;3.45;;
10009;SDS011;5044;48.652;9.250;2023-06-26T16:26:01;7.03;;;3.60;;
10009;SDS011;5044;48.652;9.250;2023-06-26T16:28:28;5.75;;;3.05;;
10009;SDS011;5044;48.652;9.250;2023-06-26T16:30:55;4.07;;;3.67;;
10009;SDS011;5044;48.652;9.250;2023-06-26T16:33:22;7.90;;;3.53;;
10009;SDS011;5044;48.652;9.250;2023-06-26T16:35:49;4.60;;;4.07;;
10009;SDS011;5044;48.652;9.250;2023-06-26T16:38:16;6.15;;;3.75;;
10009;SDS011;5044;48.652;9.250;2023-06-26T16:40:44;5.18;;;4.15;;
10009;SDS011;5044;48.652;9.250;2023-06-26T16:43:12;14.82;;;4.50;;
10009;SDS011;5044;48.652;9.250;2023-06-26T16:45:39;6.03;;;4.25;;
10009;SDS011;5044;48.652;9.250;2023-06-26T16:48:06;8.45;;;5.00;;
10009;SDS011;5044;48.652;9.250;2023-06-26T16:50:34;11.95;;;4.30;;
10009;SDS011;5044;48.652;9.250;2023-06-26T16:53:01;6.47;;;4.00;;
10009;SDS011;5044;48.652;9.250;2023-06-26T16:55:27;7.82;;;4.38;;
10009;SDS011;5044;48.652;9.250;2023-06-26T16:57:56;4.93;;;3.90;;
10009;SDS011;5044;48.652;9.250;2023-06-26T17:00:23;6.97;;;4.40;;
10009;SDS011;5044;48.652;9.250;2023-06-26T17:02:50;11.68;;;4.40;;
10009;SDS011;5044;48.652;9.250;2023-06-26T17:05:17;6.80;;;3.38;;
10009;SDS011;5044;48.652;9.250;2023-06-26T17:07:45;5.90;;;3.60;;
10009;SDS011;5044;48.652;9.250;2023-06-26T17:10:12;5.22;;;4.00;;
10009;SDS011;5044;48.652;9.250;2023-06-26T17:12:40;5.32;;;3.70;;
10009;SDS011;5044;48.652;9.250;2023-06-26T17:15:11;6.77;;;3.20;;
10009;SDS011;5044;48.652;9.250;2023-06-26T17:17:38;7.38;;;2.70;;
10009;SDS011;5044;48.652;9.250;2023-06-26T17:20:05;5.63;;;2.30;;
10009;SDS011;5044;48.652;9.250;2023-06-26T17:22:34;4.43;;;2.13;;
10009;SDS011;5044;48.652;9.250;2023-06-26T17:25:01;5.55;;;2.25;;
10009;SDS011;5044;48.652;9.250;2023-06-26T17:27:29;9.60;;;2.10;;
10009;SDS011;5044;48.652;9.250;2023-06-26T17:29:57;8.00;;;1.77;;
10009;SDS011;5044;48.652;9.250;2023-06-26T17:32:26;3.58;;;1.70;;
10009;SDS011;5044;48.652;9.250;2023-06-26T17:34:53;3.78;;;1.92;;
10009;SDS011;5044;48.652;9.250;2023-06-26T17:37:20;4.13;;;1.50;;
10009;SDS011;5044;48.652;9.250;2023-06-26T17:39:49;2.55;;;1.50;;
10009;SDS011;5044;48.652;9.250;2023-06-26T17:42:16;3.72;;;1.38;;
10009;SDS011;5044;48.652;9.250;2023-06-26T17:44:43;5.07;;;1.70;;
10009;SDS011;5044;48.652;9.250;2023-06-26T17:47:09;8.15;;;2.08;;
10009;SDS011;5044;48.652;9.250;2023-06-26T17:49:38;2.50;;;1.60;;
10009;SDS011;5044;48.652;9.250;2023-06-26T17:52:05;4.63;;;1.58;;
10009;SDS011;5044;48.652;9.250;2023-06-26T17:54:32;3.97;;;1.17;;
10009;SDS011;5044;48.652;9.250;2023-06-26T17:57:00;1.92;;;1.30;;
10009;SDS011;5044;48.652;9.250;2023-06-26T17:59:26;2.75;;;1.50;;
10009;SDS011;5044;48.652;9.250;2023-06-26T18:01:53;4.65;;;1.50;;
10009;SDS011;5044;48.652;9.250;2023-06-26T18:04:23;3.95;;;1.83;;
10009;SDS011;5044;48.652;9.250;2023-06-26T18:06:51;11.13;;;3.72;;
10009;SDS011;5044;48.652;9.250;2023-06-26T18:09:18;4.38;;;2.25;;
10009;SDS011;5044;48.652;9.250;2023-06-26T18:11:45;2.85;;;1.50;;
10009;SDS011;5044;48.652;9.250;2023-06-26T18:14:12;5.40;;;1.80;;
10009;SDS011;5044;48.652;9.250;2023-06-26T18:16:39;5.07;;;1.40;;
10009;SDS011;5044;48.652;9.250;2023-06-26T18:19:07;2.70;;;1.58;;
10009;SDS011;5044;48.652;9.250;2023-06-26T18:21:34;3.00;;;1.35;;
10009;SDS011;5044;48.652;9.250;2023-06-26T18:24:02;3.78;;;1.50;;
10009;SDS011;5044;48.652;9.250;2023-06-26T18:26:30;3.28;;;1.42;;
10009;SDS011;5044;48.652;9.250;2023-06-26T18:28:57;2.22;;;0.98;;
10009;SDS011;5044;48.652;9.250;2023-06-26T18:31:24;4.43;;;1.52;;
10009;SDS011;5044;48.652;9.250;2023-06-26T18:33:51;5.85;;;1.63;;
10009;SDS011;5044;48.652;9.250;2023-06-26T18:36:18;2.90;;;1.27;;
10009;SDS011;5044;48.652;9.250;2023-06-26T18:38:45;2.60;;;1.30;;
10009;SDS011;5044;48.652;9.250;2023-06-26T18:41:13;4.60;;;1.50;;
10009;SDS011;5044;48.652;9.250;2023-06-26T18:43:40;5.50;;;1.52;;
10009;SDS011;5044;48.652;9.250;2023-06-26T18:46:09;4.22;;;1.42;;
10009;SDS011;5044;48.652;9.250;2023-06-26T18:48:36;1.92;;;0.93;;
10009;SDS011;5044;48.652;9.250;2023-06-26T18:51:03;6.82;;;0.93;;
10009;SDS011;5044;48.652;9.250;2023-06-26T18:53:30;4.15;;;1.30;;
10009;SDS011;5044;48.652;9.250;2023-06-26T18:55:57;5.63;;;0.95;;
10009;SDS011;5044;48.652;9.250;2023-06-26T18:58:25;1.90;;;0.90;;
10009;SDS011;5044;48.652;9.250;2023-06-26T19:00:52;3.58;;;1.10;;
10009;SDS011;5044;48.652;9.250;2023-06-26T19:03:19;3.28;;;1.20;;
10009;SDS011;5044;48.652;9.250;2023-06-26T19:05:45;2.38;;;1.23;;
10009;SDS011;5044;48.652;9.250;2023-06-26T19:08:12;2.80;;;1.10;;
10009;SDS011;5044;48.652;9.250;2023-06-26T19:10:39;4.47;;;1.20;;
10009;SDS011;5044;48.652;9.250;2023-06-26T19:13:07;3.83;;;0.90;;
10009;SDS011;5044;48.652;9.250;2023-06-26T19:15:35;4.65;;;1.20;;
10009;SDS011;5044;48.652;9.250;2023-06-26T19:18:02;4.03;;;1.08;;
10009;SDS011;5044;48.652;9.250;2023-06-26T19:20:29;2.80;;;1.17;;
10009;SDS011;5044;48.652;9.250;2023-06-26T19:22:56;6.18;;;1.40;;
10009;SDS011;5044;48.652;9.250;2023-06-26T19:25:23;3.75;;;1.00;;
10009;SDS011;5044;48.652;9.250;2023-06-26T19:27:50;3.95;;;1.20;;
10009;SDS011;5044;48.652;9.250;2023-06-26T19:30:17;4.28;;;0.98;;
10009;SDS011;5044;48.652;9.250;2023-06-26T19:32:45;6.03;;;1.20;;
10009;SDS011;5044;48.652;9.250;2023-06-26T19:35:12;4.10;;;1.40;;
10009;SDS011;5044;48.652;9.250;2023-06-26T19:37:39;6.20;;;0.98;;
10009;SDS011;5044;48.652;9.250;2023-06-26T19:40:06;1.33;;;0.80;;
10009;SDS011;5044;48.652;9.250;2023-06-26T19:42:34;1.17;;;0.80;;
10009;SDS011;5044;48.652;9.250;2023-06-26T19:45:01;2.80;;;1.00;;
10009;SDS011;5044;48.652;9.250;2023-06-26T19:47:28;1.70;;;0.85;;
10009;SDS011;5044;48.652;9.250;2023-06-26T19:49:58;1.33;;;0.90;;
10009;SDS011;5044;48.652;9.250;2023-06-26T19:52:25;1.58;;;0.90;;
10009;SDS011;5044;48.652;9.250;2023-06-26T19:54:53;2.55;;;1.00;;
10009;SDS011;5044;48.652;9.250;2023-06-26T19:57:20;2.85;;;1.00;;
10009;SDS011;5044;48.652;9.250;2023-06-26T19:59:46;3.80;;;0.90;;
10009;SDS011;5044;48.652;9.250;2023-06-26T20:02:13;2.15;;;1.15;;
10009;SDS011;5044;48.652;9.250;2023-06-26T20:04:41;2.40;;;1.10;;
10009;SDS011;5044;48.652;9.250;2023-06-26T20:07:09;2.53;;;1.00;;
10009;SDS011;5044;48.652;9.250;2023-06-26T20:09:37;2.53;;;1.00;;
10009;SDS011;5044;48.652;9.250;2023-06-26T20:12:04;2.33;;;1.00;;
10009;SDS011;5044;48.652;9.250;2023-06-26T20:14:32;3.30;;;1.15;;
10009;SDS011;5044;48.652;9.250;2023-06-26T20:16:59;2.78;;;1.40;;
10009;SDS011;5044;48.652;9.250;2023-06-26T20:19:27;2.60;;;1.35;;
10009;SDS011;5044;48.652;9.250;2023-06-26T20:21:54;2.78;;;1.05;;
10009;SDS011;5044;48.652;9.250;2023-06-26T20:24:24;2.38;;;0.80;;
10009;SDS011;5044;48.652;9.250;2023-06-26T20:26:51;3.17;;;1.25;;
10009;SDS011;5044;48.652;9.250;2023-06-26T20:29:19;3.53;;;1.45;;
10009;SDS011;5044;48.652;9.250;2023-06-26T20:31:45;2.53;;;1.25;;
10009;SDS011;5044;48.652;9.250;2023-06-26T20:34:12;1.85;;;0.82;;
10009;SDS011;5044;48.652;9.250;2023-06-26T20:36:40;2.95;;;1.45;;
10009;SDS011;5044;48.652;9.250;2023-06-26T20:39:07;8.02;;;1.38;;
10009;SDS011;5044;48.652;9.250;2023-06-26T20:41:36;2.92;;;1.10;;
10009;SDS011;5044;48.652;9.250;2023-06-26T20:44:04;2.25;;;0.82;;
10009;SDS011;5044;48.652;9.250;2023-06-26T20:46:31;2.47;;;1.20;;
10009;SDS011;5044;48.652;9.250;2023-06-26T20:49:00;3.38;;;1.27;;
10009;SDS011;5044;48.652;9.250;2023-06-26T20:51:28;1.98;;;0.93;;